sensor_id;sensor_type;location;lat;lon;timestamp;temperature;humidity
12115;DHT22;6121;49.810;6.418;2023-09-19T00:01:33;17.00;99.90
12115;DHT22;6121;49.810;6.418;2023-09-19T00:04:00;16.80;99.90
12115;DHT22;6121;49.810;6.418;2023-09-19T00:06:29;16.90;99.90
12115;DHT22;6121;49.810;6.418;2023-09-19T00:08:57;16.70;99.90
12115;DHT22;6121;49.810;6.418;2023-09-19T00:11:25;16.60;99.90
12115;DHT22;6121;49.810;6.418;2023-09-19T00:13:52;16.60;99.90
12115;DHT22;6121;49.810;6.418;2023-09-19T00:16:18;16.90;99.90
12115;DHT22;6121;49.810;6.418;2023-09-19T00:18:45;16.50;99.90
12115;DHT22;6121;49.810;6.418;2023-09-19T00:21:11;16.40;99.90
12115;DHT22;6121;49.810;6.418;2023-09-19T00:23:37;16.30;99.90
12115;DHT22;6121;49.810;6.418;2023-09-19T00:26:03;16.40;99.90
12115;DHT22;6121;49.810;6.418;2023-09-19T00:28:30;16.20;99.90
12115;DHT22;6121;49.810;6.418;2023-09-19T00:30:57;16.20;99.90
12115;DHT22;6121;49.810;6.418;2023-09-19T00:33:27;16.20;99.90
12115;DHT22;6121;49.810;6.418;2023-09-19T00:35:56;16.00;99.90
12115;DHT22;6121;49.810;6.418;2023-09-19T00:38:23;16.20;99.90
12115;DHT22;6121;49.810;6.418;2023-09-19T00:40:53;16.30;99.90
12115;DHT22;6121;49.810;6.418;2023-09-19T00:43:21;16.20;99.90
12115;DHT22;6121;49.810;6.418;2023-09-19T00:45:52;16.10;99.90
12115;DHT22;6121;49.810;6.418;2023-09-19T00:48:21;16.10;99.90
12115;DHT22;6121;49.810;6.418;2023-09-19T00:50:48;16.40;99.90
12115;DHT22;6121;49.810;6.418;2023-09-19T00:53:18;16.20;99.90
12115;DHT22;6121;49.810;6.418;2023-09-19T00:55:46;16.00;99.90
12115;DHT22;6121;49.810;6.418;2023-09-19T00:58:12;15.90;99.90
12115;DHT22;6121;49.810;6.418;2023-09-19T01:00:40;15.90;99.90
12115;DHT22;6121;49.810;6.418;2023-09-19T01:03:06;15.90;99.90
12115;DHT22;6121;49.810;6.418;2023-09-19T01:05:33;15.90;99.90
12115;DHT22;6121;49.810;6.418;2023-09-19T01:07:59;15.90;99.90
12115;DHT22;6121;49.810;6.418;2023-09-19T01:10:25;15.90;99.90
12115;DHT22;6121;49.810;6.418;2023-09-19T01:29:38;15.80;99.90
12115;DHT22;6121;49.810;6.418;2023-09-19T01:32:06;15.90;99.90
12115;DHT22;6121;49.810;6.418;2023-09-19T01:34:48;15.70;99.90
12115;DHT22;6121;49.810;6.418;2023-09-19T01:37:16;15.80;99.90
12115;DHT22;6121;49.810;6.418;2023-09-19T01:39:55;15.70;99.90
12115;DHT22;6121;49.810;6.418;2023-09-19T01:42:41;15.70;99.90
12115;DHT22;6121;49.810;6.418;2023-09-19T01:48:38;15.80;99.90
12115;DHT22;6121;49.810;6.418;2023-09-19T01:51:14;15.80;99.90
12115;DHT22;6121;49.810;6.418;2023-09-19T01:56:36;15.60;99.90
12115;DHT22;6121;49.810;6.418;2023-09-19T01:59:13;15.80;99.90
12115;DHT22;6121;49.810;6.418;2023-09-19T02:01:40;15.80;99.90
12115;DHT22;6121;49.810;6.418;2023-09-19T02:04:10;15.60;99.90
12115;DHT22;6121;49.810;6.418;2023-09-19T02:06:40;15.80;99.90
12115;DHT22;6121;49.810;6.418;2023-09-19T02:09:06;15.70;99.90
12115;DHT22;6121;49.810;6.418;2023-09-19T02:11:32;15.80;99.90
12115;DHT22;6121;49.810;6.418;2023-09-19T02:13:58;15.90;99.90
12115;DHT22;6121;49.810;6.418;2023-09-19T02:16:25;15.70;99.90
12115;DHT22;6121;49.810;6.418;2023-09-19T02:18:51;15.70;99.90
12115;DHT22;6121;49.810;6.418;2023-09-19T02:21:17;15.70;99.90
12115;DHT22;6121;49.810;6.418;2023-09-19T02:23:44;15.70;99.90
12115;DHT22;6121;49.810;6.418;2023-09-19T02:26:13;15.70;99.90
12115;DHT22;6121;49.810;6.418;2023-09-19T02:28:40;15.80;99.90
12115;DHT22;6121;49.810;6.418;2023-09-19T02:31:08;15.80;99.90
12115;DHT22;6121;49.810;6.418;2023-09-19T02:33:34;15.80;99.90
12115;DHT22;6121;49.810;6.418;2023-09-19T02:36:00;15.90;99.90
12115;DHT22;6121;49.810;6.418;2023-09-19T02:38:27;15.20;99.90
12115;DHT22;6121;49.810;6.418;2023-09-19T02:40:53;15.80;99.90
12115;DHT22;6121;49.810;6.418;2023-09-19T02:43:21;16.30;99.90
12115;DHT22;6121;49.810;6.418;2023-09-19T02:45:48;16.10;99.90
12115;DHT22;6121;49.810;6.418;2023-09-19T02:48:19;15.90;99.90
12115;DHT22;6121;49.810;6.418;2023-09-19T02:50:46;15.90;99.90
12115;DHT22;6121;49.810;6.418;2023-09-19T02:53:14;15.80;99.90
12115;DHT22;6121;49.810;6.418;2023-09-19T02:55:40;16.30;99.90
12115;DHT22;6121;49.810;6.418;2023-09-19T02:58:07;15.80;99.90
12115;DHT22;6121;49.810;6.418;2023-09-19T03:00:40;15.80;99.90
12115;DHT22;6121;49.810;6.418;2023-09-19T03:03:08;15.90;99.90
12115;DHT22;6121;49.810;6.418;2023-09-19T03:05:34;16.10;99.90
12115;DHT22;6121;49.810;6.418;2023-09-19T03:08:00;15.90;99.90
12115;DHT22;6121;49.810;6.418;2023-09-19T03:10:27;16.70;99.90
12115;DHT22;6121;49.810;6.418;2023-09-19T03:12:55;15.80;99.90
12115;DHT22;6121;49.810;6.418;2023-09-19T03:15:21;15.80;99.90
12115;DHT22;6121;49.810;6.418;2023-09-19T03:17:49;15.70;99.90
12115;DHT22;6121;49.810;6.418;2023-09-19T03:20:19;15.90;99.90
12115;DHT22;6121;49.810;6.418;2023-09-19T03:22:47;15.70;99.90
12115;DHT22;6121;49.810;6.418;2023-09-19T03:25:15;15.80;99.90
12115;DHT22;6121;49.810;6.418;2023-09-19T03:27:44;15.80;99.90
12115;DHT22;6121;49.810;6.418;2023-09-19T03:30:10;15.80;99.90
12115;DHT22;6121;49.810;6.418;2023-09-19T03:32:47;15.60;99.90
12115;DHT22;6121;49.810;6.418;2023-09-19T03:35:16;15.70;99.90
12115;DHT22;6121;49.810;6.418;2023-09-19T03:37:43;15.70;99.90
12115;DHT22;6121;49.810;6.418;2023-09-19T03:40:10;15.70;99.90
12115;DHT22;6121;49.810;6.418;2023-09-19T03:42:41;15.90;99.90
12115;DHT22;6121;49.810;6.418;2023-09-19T03:45:09;15.60;99.90
12115;DHT22;6121;49.810;6.418;2023-09-19T03:47:40;15.70;99.90
12115;DHT22;6121;49.810;6.418;2023-09-19T03:50:08;15.50;99.90
12115;DHT22;6121;49.810;6.418;2023-09-19T03:52:36;15.70;99.90
12115;DHT22;6121;49.810;6.418;2023-09-19T03:55:02;15.70;99.90
12115;DHT22;6121;49.810;6.418;2023-09-19T03:57:29;15.70;99.90
12115;DHT22;6121;49.810;6.418;2023-09-19T03:59:55;15.60;99.90
12115;DHT22;6121;49.810;6.418;2023-09-19T04:02:22;15.70;99.90
12115;DHT22;6121;49.810;6.418;2023-09-19T04:04:52;15.60;99.90
12115;DHT22;6121;49.810;6.418;2023-09-19T04:07:18;15.70;99.90
12115;DHT22;6121;49.810;6.418;2023-09-19T04:09:48;15.40;99.90
12115;DHT22;6121;49.810;6.418;2023-09-19T04:12:15;15.50;99.90
12115;DHT22;6121;49.810;6.418;2023-09-19T04:14:42;15.50;99.90
12115;DHT22;6121;49.810;6.418;2023-09-19T04:17:08;15.40;99.90
12115;DHT22;6121;49.810;6.418;2023-09-19T04:19:36;15.60;99.90
12115;DHT22;6121;49.810;6.418;2023-09-19T04:22:02;15.40;99.90
12115;DHT22;6121;49.810;6.418;2023-09-19T04:24:29;15.50;99.90
12115;DHT22;6121;49.810;6.418;2023-09-19T04:26:54;15.40;99.90
12115;DHT22;6121;49.810;6.418;2023-09-19T04:29:20;15.40;99.90
12115;DHT22;6121;49.810;6.418;2023-09-19T04:31:46;15.50;99.90
12115;DHT22;6121;49.810;6.418;2023-09-19T04:34:12;15.60;99.90
12115;DHT22;6121;49.810;6.418;2023-09-19T04:36:43;15.40;99.90
12115;DHT22;6121;49.810;6.418;2023-09-19T04:39:09;15.30;99.90
12115;DHT22;6121;49.810;6.418;2023-09-19T04:41:38;15.20;99.90
12115;DHT22;6121;49.810;6.418;2023-09-19T04:44:06;15.20;99.90
12115;DHT22;6121;49.810;6.418;2023-09-19T04:46:33;15.60;99.90
12115;DHT22;6121;49.810;6.418;2023-09-19T04:48:59;15.30;99.90
12115;DHT22;6121;49.810;6.418;2023-09-19T04:51:26;15.40;99.90
12115;DHT22;6121;49.810;6.418;2023-09-19T04:53:54;15.60;99.90
12115;DHT22;6121;49.810;6.418;2023-09-19T04:56:20;15.10;99.90
12115;DHT22;6121;49.810;6.418;2023-09-19T04:58:46;15.30;99.90
12115;DHT22;6121;49.810;6.418;2023-09-19T05:01:12;15.30;99.90
12115;DHT22;6121;49.810;6.418;2023-09-19T05:03:40;15.20;99.90
12115;DHT22;6121;49.810;6.418;2023-09-19T05:06:06;15.10;99.90
12115;DHT22;6121;49.810;6.418;2023-09-19T05:08:32;15.30;99.90
12115;DHT22;6121;49.810;6.418;2023-09-19T05:10:58;15.40;99.90
12115;DHT22;6121;49.810;6.418;2023-09-19T05:13:27;15.10;99.90
12115;DHT22;6121;49.810;6.418;2023-09-19T05:15:52;14.60;99.90
12115;DHT22;6121;49.810;6.418;2023-09-19T05:18:18;15.10;99.90
12115;DHT22;6121;49.810;6.418;2023-09-19T05:20:44;15.30;99.90
12115;DHT22;6121;49.810;6.418;2023-09-19T05:23:10;15.10;99.90
12115;DHT22;6121;49.810;6.418;2023-09-19T05:25:40;15.10;99.90
12115;DHT22;6121;49.810;6.418;2023-09-19T05:28:08;15.00;99.90
12115;DHT22;6121;49.810;6.418;2023-09-19T05:30:34;15.00;99.90
12115;DHT22;6121;49.810;6.418;2023-09-19T05:33:02;15.10;99.90
12115;DHT22;6121;49.810;6.418;2023-09-19T05:35:30;15.10;99.90
12115;DHT22;6121;49.810;6.418;2023-09-19T05:37:57;14.90;99.90
12115;DHT22;6121;49.810;6.418;2023-09-19T05:40:24;15.70;99.90
12115;DHT22;6121;49.810;6.418;2023-09-19T05:42:50;15.00;99.90
12115;DHT22;6121;49.810;6.418;2023-09-19T05:45:16;14.90;99.90
12115;DHT22;6121;49.810;6.418;2023-09-19T05:47:52;15.10;99.90
12115;DHT22;6121;49.810;6.418;2023-09-19T05:50:21;15.00;99.90
12115;DHT22;6121;49.810;6.418;2023-09-19T05:52:54;15.40;99.90
12115;DHT22;6121;49.810;6.418;2023-09-19T05:55:21;14.90;99.90
12115;DHT22;6121;49.810;6.418;2023-09-19T05:57:51;15.20;99.90
12115;DHT22;6121;49.810;6.418;2023-09-19T06:00:21;15.00;99.90
12115;DHT22;6121;49.810;6.418;2023-09-19T06:02:56;15.10;99.90
12115;DHT22;6121;49.810;6.418;2023-09-19T06:05:23;14.90;99.90
12115;DHT22;6121;49.810;6.418;2023-09-19T06:07:49;14.90;99.90
12115;DHT22;6121;49.810;6.418;2023-09-19T06:10:16;14.80;99.90
12115;DHT22;6121;49.810;6.418;2023-09-19T06:12:43;14.80;99.90
12115;DHT22;6121;49.810;6.418;2023-09-19T06:15:13;14.80;99.90
12115;DHT22;6121;49.810;6.418;2023-09-19T06:17:52;15.00;99.90
12115;DHT22;6121;49.810;6.418;2023-09-19T06:20:21;15.10;99.90
12115;DHT22;6121;49.810;6.418;2023-09-19T06:22:49;14.80;99.90
12115;DHT22;6121;49.810;6.418;2023-09-19T06:25:16;14.90;99.90
12115;DHT22;6121;49.810;6.418;2023-09-19T06:27:46;14.90;99.90
12115;DHT22;6121;49.810;6.418;2023-09-19T06:30:12;14.80;99.90
12115;DHT22;6121;49.810;6.418;2023-09-19T06:32:42;15.00;99.90
12115;DHT22;6121;49.810;6.418;2023-09-19T06:35:10;14.90;99.90
12115;DHT22;6121;49.810;6.418;2023-09-19T06:37:37;15.30;99.90
12115;DHT22;6121;49.810;6.418;2023-09-19T06:40:10;15.10;99.90
12115;DHT22;6121;49.810;6.418;2023-09-19T06:42:47;15.20;99.90
12115;DHT22;6121;49.810;6.418;2023-09-19T06:45:15;15.10;99.90
12115;DHT22;6121;49.810;6.418;2023-09-19T06:47:51;15.20;99.90
12115;DHT22;6121;49.810;6.418;2023-09-19T06:50:21;15.40;99.90
12115;DHT22;6121;49.810;6.418;2023-09-19T06:52:52;15.30;99.90
12115;DHT22;6121;49.810;6.418;2023-09-19T06:55:20;15.70;99.90
12115;DHT22;6121;49.810;6.418;2023-09-19T06:57:47;15.40;99.90
12115;DHT22;6121;49.810;6.418;2023-09-19T07:00:13;15.50;99.90
12115;DHT22;6121;49.810;6.418;2023-09-19T07:03:01;15.60;99.90
12115;DHT22;6121;49.810;6.418;2023-09-19T07:05:33;15.60;99.90
12115;DHT22;6121;49.810;6.418;2023-09-19T07:07:59;15.50;99.90
12115;DHT22;6121;49.810;6.418;2023-09-19T07:10:29;15.60;99.90
12115;DHT22;6121;49.810;6.418;2023-09-19T07:13:03;15.70;99.90
12115;DHT22;6121;49.810;6.418;2023-09-19T07:15:31;15.80;99.90
12115;DHT22;6121;49.810;6.418;2023-09-19T07:17:59;16.00;99.90
12115;DHT22;6121;49.810;6.418;2023-09-19T07:20:26;15.80;99.90
12115;DHT22;6121;49.810;6.418;2023-09-19T07:22:54;16.20;99.90
12115;DHT22;6121;49.810;6.418;2023-09-19T07:25:26;15.90;99.90
12115;DHT22;6121;49.810;6.418;2023-09-19T07:27:52;16.20;99.90
12115;DHT22;6121;49.810;6.418;2023-09-19T07:30:17;16.40;99.90
12115;DHT22;6121;49.810;6.418;2023-09-19T07:32:43;16.10;99.90
12115;DHT22;6121;49.810;6.418;2023-09-19T07:35:09;16.20;99.90
12115;DHT22;6121;49.810;6.418;2023-09-19T07:37:35;16.40;99.90
12115;DHT22;6121;49.810;6.418;2023-09-19T07:40:05;16.30;99.90
12115;DHT22;6121;49.810;6.418;2023-09-19T07:42:36;16.50;99.90
12115;DHT22;6121;49.810;6.418;2023-09-19T07:45:05;16.50;99.90
12115;DHT22;6121;49.810;6.418;2023-09-19T07:47:31;16.60;99.90
12115;DHT22;6121;49.810;6.418;2023-09-19T07:49:58;16.50;99.90
12115;DHT22;6121;49.810;6.418;2023-09-19T07:52:25;16.90;99.90
12115;DHT22;6121;49.810;6.418;2023-09-19T07:54:53;17.00;99.90
12115;DHT22;6121;49.810;6.418;2023-09-19T07:57:19;17.10;99.90
12115;DHT22;6121;49.810;6.418;2023-09-19T07:59:45;17.10;99.90
12115;DHT22;6121;49.810;6.418;2023-09-19T08:02:11;17.20;99.90
12115;DHT22;6121;49.810;6.418;2023-09-19T08:04:45;17.30;99.90
12115;DHT22;6121;49.810;6.418;2023-09-19T08:07:11;17.20;99.90
12115;DHT22;6121;49.810;6.418;2023-09-19T08:09:38;17.30;99.90
12115;DHT22;6121;49.810;6.418;2023-09-19T08:12:05;17.60;99.90
12115;DHT22;6121;49.810;6.418;2023-09-19T08:14:32;17.70;99.90
12115;DHT22;6121;49.810;6.418;2023-09-19T08:16:59;17.60;99.90
12115;DHT22;6121;49.810;6.418;2023-09-19T08:19:25;17.80;99.90
12115;DHT22;6121;49.810;6.418;2023-09-19T08:21:57;17.90;99.90
12115;DHT22;6121;49.810;6.418;2023-09-19T08:24:28;18.00;99.90
12115;DHT22;6121;49.810;6.418;2023-09-19T08:26:55;18.10;99.90
12115;DHT22;6121;49.810;6.418;2023-09-19T08:29:22;18.20;99.90
12115;DHT22;6121;49.810;6.418;2023-09-19T08:31:57;18.40;99.90
12115;DHT22;6121;49.810;6.418;2023-09-19T08:34:26;18.50;99.90
12115;DHT22;6121;49.810;6.418;2023-09-19T08:36:55;18.40;99.90
12115;DHT22;6121;49.810;6.418;2023-09-19T08:39:24;18.50;99.90
12115;DHT22;6121;49.810;6.418;2023-09-19T08:42:00;18.80;99.90
12115;DHT22;6121;49.810;6.418;2023-09-19T08:44:28;19.00;99.90
12115;DHT22;6121;49.810;6.418;2023-09-19T08:47:06;19.30;99.90
12115;DHT22;6121;49.810;6.418;2023-09-19T08:52:28;19.10;99.90
12115;DHT22;6121;49.810;6.418;2023-09-19T08:54:58;19.20;99.90
12115;DHT22;6121;49.810;6.418;2023-09-19T08:57:28;19.40;99.90
12115;DHT22;6121;49.810;6.418;2023-09-19T08:59:55;19.80;99.90
12115;DHT22;6121;49.810;6.418;2023-09-19T09:02:23;20.00;99.90
12115;DHT22;6121;49.810;6.418;2023-09-19T09:04:50;20.40;99.90
12115;DHT22;6121;49.810;6.418;2023-09-19T09:07:16;20.90;99.90
12115;DHT22;6121;49.810;6.418;2023-09-19T09:09:45;20.60;99.90
12115;DHT22;6121;49.810;6.418;2023-09-19T09:12:12;20.80;99.90
12115;DHT22;6121;49.810;6.418;2023-09-19T09:14:40;21.20;99.90
12115;DHT22;6121;49.810;6.418;2023-09-19T09:17:07;20.90;99.90
12115;DHT22;6121;49.810;6.418;2023-09-19T09:19:33;21.30;99.90
12115;DHT22;6121;49.810;6.418;2023-09-19T09:22:09;20.80;99.90
12115;DHT22;6121;49.810;6.418;2023-09-19T09:24:36;20.80;99.90
12115;DHT22;6121;49.810;6.418;2023-09-19T09:27:05;20.80;99.90
12115;DHT22;6121;49.810;6.418;2023-09-19T09:29:47;21.10;99.90
12115;DHT22;6121;49.810;6.418;2023-09-19T09:32:29;21.20;99.90
12115;DHT22;6121;49.810;6.418;2023-09-19T09:35:00;20.90;99.90
12115;DHT22;6121;49.810;6.418;2023-09-19T09:37:26;20.80;99.90
12115;DHT22;6121;49.810;6.418;2023-09-19T09:39:55;20.90;99.90
12115;DHT22;6121;49.810;6.418;2023-09-19T09:42:35;20.50;99.90
12115;DHT22;6121;49.810;6.418;2023-09-19T09:45:18;20.60;99.90
12115;DHT22;6121;49.810;6.418;2023-09-19T09:48:24;20.60;99.90
12115;DHT22;6121;49.810;6.418;2023-09-19T09:50:57;20.90;99.90
12115;DHT22;6121;49.810;6.418;2023-09-19T09:53:29;20.90;99.90
12115;DHT22;6121;49.810;6.418;2023-09-19T09:56:05;21.10;99.90
12115;DHT22;6121;49.810;6.418;2023-09-19T09:58:52;21.50;99.90
12115;DHT22;6121;49.810;6.418;2023-09-19T10:01:24;21.30;99.90
12115;DHT22;6121;49.810;6.418;2023-09-19T10:03:58;21.40;99.90
12115;DHT22;6121;49.810;6.418;2023-09-19T10:06:23;21.60;99.90
12115;DHT22;6121;49.810;6.418;2023-09-19T10:09:04;21.60;99.90
12115;DHT22;6121;49.810;6.418;2023-09-19T10:11:44;22.20;99.90
12115;DHT22;6121;49.810;6.418;2023-09-19T10:14:16;23.30;99.90
12115;DHT22;6121;49.810;6.418;2023-09-19T10:16:48;24.00;99.90
12115;DHT22;6121;49.810;6.418;2023-09-19T10:19:20;24.50;99.90
12115;DHT22;6121;49.810;6.418;2023-09-19T10:21:50;25.20;99.90
12115;DHT22;6121;49.810;6.418;2023-09-19T10:24:17;26.00;99.90
12115;DHT22;6121;49.810;6.418;2023-09-19T10:26:45;26.80;99.70
12115;DHT22;6121;49.810;6.418;2023-09-19T10:29:13;26.40;97.90
12115;DHT22;6121;49.810;6.418;2023-09-19T10:31:42;26.80;97.80
12115;DHT22;6121;49.810;6.418;2023-09-19T10:34:17;26.90;97.40
12115;DHT22;6121;49.810;6.418;2023-09-19T10:36:46;26.70;96.70
12115;DHT22;6121;49.810;6.418;2023-09-19T10:39:15;26.60;96.70
12115;DHT22;6121;49.810;6.418;2023-09-19T10:41:50;27.20;95.20
12115;DHT22;6121;49.810;6.418;2023-09-19T10:44:24;27.10;94.60
12115;DHT22;6121;49.810;6.418;2023-09-19T10:46:54;27.70;94.60
12115;DHT22;6121;49.810;6.418;2023-09-19T10:49:21;28.40;93.80
12115;DHT22;6121;49.810;6.418;2023-09-19T10:51:49;28.40;93.00
12115;DHT22;6121;49.810;6.418;2023-09-19T10:54:21;28.00;92.70
12115;DHT22;6121;49.810;6.418;2023-09-19T10:56:50;27.60;92.60
12115;DHT22;6121;49.810;6.418;2023-09-19T10:59:20;27.60;93.10
12115;DHT22;6121;49.810;6.418;2023-09-19T11:01:55;27.40;92.80
12115;DHT22;6121;49.810;6.418;2023-09-19T11:04:34;27.20;92.60
12115;DHT22;6121;49.810;6.418;2023-09-19T11:07:09;27.40;92.50
12115;DHT22;6121;49.810;6.418;2023-09-19T11:09:52;27.10;92.00
12115;DHT22;6121;49.810;6.418;2023-09-19T11:14:55;27.60;92.60
12115;DHT22;6121;49.810;6.418;2023-09-19T11:30:39;27.40;91.20
12115;DHT22;6121;49.810;6.418;2023-09-19T11:33:28;27.60;90.80
12115;DHT22;6121;49.810;6.418;2023-09-19T11:36:14;27.60;90.30
12115;DHT22;6121;49.810;6.418;2023-09-19T11:46:27;26.50;90.30
12115;DHT22;6121;49.810;6.418;2023-09-19T11:48:54;26.40;90.20
12115;DHT22;6121;49.810;6.418;2023-09-19T11:51:22;26.80;90.00
12115;DHT22;6121;49.810;6.418;2023-09-19T11:53:50;26.90;89.40
12115;DHT22;6121;49.810;6.418;2023-09-19T11:56:17;26.60;90.10
12115;DHT22;6121;49.810;6.418;2023-09-19T11:58:45;26.70;90.40
12115;DHT22;6121;49.810;6.418;2023-09-19T12:01:21;26.80;90.90
12115;DHT22;6121;49.810;6.418;2023-09-19T12:03:50;27.50;90.30
12115;DHT22;6121;49.810;6.418;2023-09-19T12:06:18;26.90;90.10
12115;DHT22;6121;49.810;6.418;2023-09-19T12:08:44;26.40;90.70
12115;DHT22;6121;49.810;6.418;2023-09-19T12:11:15;27.00;90.70
12115;DHT22;6121;49.810;6.418;2023-09-19T12:13:42;27.70;90.20
12115;DHT22;6121;49.810;6.418;2023-09-19T12:18:41;27.20;87.10
12115;DHT22;6121;49.810;6.418;2023-09-19T12:21:23;26.60;88.40
12115;DHT22;6121;49.810;6.418;2023-09-19T12:24:06;26.70;90.10
12115;DHT22;6121;49.810;6.418;2023-09-19T12:26:39;27.20;89.50
12115;DHT22;6121;49.810;6.418;2023-09-19T12:29:16;27.40;88.20
12115;DHT22;6121;49.810;6.418;2023-09-19T12:31:59;26.90;88.00
12115;DHT22;6121;49.810;6.418;2023-09-19T12:34:29;26.60;88.20
12115;DHT22;6121;49.810;6.418;2023-09-19T12:37:12;26.50;89.00
12115;DHT22;6121;49.810;6.418;2023-09-19T12:39:39;26.70;88.10
12115;DHT22;6121;49.810;6.418;2023-09-19T12:42:13;26.70;85.70
12115;DHT22;6121;49.810;6.418;2023-09-19T12:44:50;26.40;86.10
12115;DHT22;6121;49.810;6.418;2023-09-19T12:47:23;26.40;86.60
12115;DHT22;6121;49.810;6.418;2023-09-19T12:52:48;26.20;85.80
12115;DHT22;6121;49.810;6.418;2023-09-19T12:57:57;26.20;87.00
12115;DHT22;6121;49.810;6.418;2023-09-19T13:00:35;26.10;86.50
12115;DHT22;6121;49.810;6.418;2023-09-19T13:05:58;25.70;87.60
12115;DHT22;6121;49.810;6.418;2023-09-19T13:08:27;25.50;87.90
12115;DHT22;6121;49.810;6.418;2023-09-19T13:11:08;25.40;89.40
12115;DHT22;6121;49.810;6.418;2023-09-19T13:13:50;25.30;89.70
12115;DHT22;6121;49.810;6.418;2023-09-19T13:16:20;25.20;90.40
12115;DHT22;6121;49.810;6.418;2023-09-19T13:18:52;25.50;90.00
12115;DHT22;6121;49.810;6.418;2023-09-19T13:21:34;25.80;89.30
12115;DHT22;6121;49.810;6.418;2023-09-19T13:24:22;25.50;89.50
12115;DHT22;6121;49.810;6.418;2023-09-19T13:26:48;25.10;90.10
12115;DHT22;6121;49.810;6.418;2023-09-19T13:29:15;25.10;90.90
12115;DHT22;6121;49.810;6.418;2023-09-19T13:31:53;24.90;90.70
12115;DHT22;6121;49.810;6.418;2023-09-19T13:34:19;24.90;91.10
12115;DHT22;6121;49.810;6.418;2023-09-19T13:36:45;24.60;91.20
12115;DHT22;6121;49.810;6.418;2023-09-19T13:39:17;24.80;91.30
12115;DHT22;6121;49.810;6.418;2023-09-19T13:41:47;24.40;91.10
12115;DHT22;6121;49.810;6.418;2023-09-19T13:44:14;24.50;91.50
12115;DHT22;6121;49.810;6.418;2023-09-19T13:46:39;24.70;92.00
12115;DHT22;6121;49.810;6.418;2023-09-19T13:49:06;24.30;91.70
12115;DHT22;6121;49.810;6.418;2023-09-19T13:51:32;24.40;91.70
12115;DHT22;6121;49.810;6.418;2023-09-19T13:53:58;24.00;91.80
12115;DHT22;6121;49.810;6.418;2023-09-19T13:56:25;24.00;92.40
12115;DHT22;6121;49.810;6.418;2023-09-19T13:58:57;24.30;92.30
12115;DHT22;6121;49.810;6.418;2023-09-19T14:01:23;24.00;92.50
12115;DHT22;6121;49.810;6.418;2023-09-19T14:03:48;23.90;92.30
12115;DHT22;6121;49.810;6.418;2023-09-19T14:06:17;24.10;93.10
12115;DHT22;6121;49.810;6.418;2023-09-19T14:08:44;23.80;92.80
12115;DHT22;6121;49.810;6.418;2023-09-19T14:11:13;24.10;93.20
12115;DHT22;6121;49.810;6.418;2023-09-19T14:13:40;23.40;92.90
12115;DHT22;6121;49.810;6.418;2023-09-19T14:16:07;23.40;93.00
12115;DHT22;6121;49.810;6.418;2023-09-19T14:18:34;23.20;93.10
12115;DHT22;6121;49.810;6.418;2023-09-19T14:21:07;23.00;93.30
12115;DHT22;6121;49.810;6.418;2023-09-19T14:23:37;23.10;93.50
12115;DHT22;6121;49.810;6.418;2023-09-19T14:26:04;22.90;93.40
12115;DHT22;6121;49.810;6.418;2023-09-19T14:28:31;22.90;93.50
12115;DHT22;6121;49.810;6.418;2023-09-19T14:31:04;22.90;93.40
12115;DHT22;6121;49.810;6.418;2023-09-19T14:33:31;22.80;93.80
12115;DHT22;6121;49.810;6.418;2023-09-19T14:35:57;22.90;94.30
12115;DHT22;6121;49.810;6.418;2023-09-19T14:38:23;22.80;93.60
12115;DHT22;6121;49.810;6.418;2023-09-19T14:40:49;22.70;93.70
12115;DHT22;6121;49.810;6.418;2023-09-19T14:43:24;23.20;94.30
12115;DHT22;6121;49.810;6.418;2023-09-19T14:45:49;22.70;93.90
12115;DHT22;6121;49.810;6.418;2023-09-19T14:48:15;22.70;93.90
12115;DHT22;6121;49.810;6.418;2023-09-19T14:50:41;22.80;94.10
12115;DHT22;6121;49.810;6.418;2023-09-19T14:53:07;22.50;93.80
12115;DHT22;6121;49.810;6.418;2023-09-19T14:55:37;22.80;93.50
12115;DHT22;6121;49.810;6.418;2023-09-19T14:58:07;22.40;93.60
12115;DHT22;6121;49.810;6.418;2023-09-19T15:00:33;22.30;93.80
12115;DHT22;6121;49.810;6.418;2023-09-19T15:03:00;22.30;94.00
12115;DHT22;6121;49.810;6.418;2023-09-19T15:05:25;22.30;94.20
12115;DHT22;6121;49.810;6.418;2023-09-19T15:07:51;22.20;94.20
12115;DHT22;6121;49.810;6.418;2023-09-19T15:10:17;22.40;94.50
12115;DHT22;6121;49.810;6.418;2023-09-19T15:12:44;22.30;94.20
12115;DHT22;6121;49.810;6.418;2023-09-19T15:15:10;22.20;94.50
12115;DHT22;6121;49.810;6.418;2023-09-19T15:17:36;22.30;94.60
12115;DHT22;6121;49.810;6.418;2023-09-19T15:20:02;22.10;94.60
12115;DHT22;6121;49.810;6.418;2023-09-19T15:22:35;22.10;94.90
12115;DHT22;6121;49.810;6.418;2023-09-19T15:25:02;22.20;95.10
12115;DHT22;6121;49.810;6.418;2023-09-19T15:27:30;22.20;95.30
12115;DHT22;6121;49.810;6.418;2023-09-19T15:29:57;22.20;95.40
12115;DHT22;6121;49.810;6.418;2023-09-19T15:32:30;22.30;95.60
12115;DHT22;6121;49.810;6.418;2023-09-19T15:34:56;22.20;95.60
12115;DHT22;6121;49.810;6.418;2023-09-19T15:37:22;22.10;95.80
12115;DHT22;6121;49.810;6.418;2023-09-19T15:39:48;22.20;96.20
12115;DHT22;6121;49.810;6.418;2023-09-19T15:42:14;22.30;96.40
12115;DHT22;6121;49.810;6.418;2023-09-19T15:44:42;22.20;96.10
12115;DHT22;6121;49.810;6.418;2023-09-19T15:47:09;22.30;96.30
12115;DHT22;6121;49.810;6.418;2023-09-19T15:49:35;22.30;96.40
12115;DHT22;6121;49.810;6.418;2023-09-19T15:52:01;22.10;96.10
12115;DHT22;6121;49.810;6.418;2023-09-19T15:54:27;22.00;96.50
12115;DHT22;6121;49.810;6.418;2023-09-19T15:56:53;22.20;96.80
12115;DHT22;6121;49.810;6.418;2023-09-19T15:59:20;21.90;96.60
12115;DHT22;6121;49.810;6.418;2023-09-19T16:01:46;22.00;96.90
12115;DHT22;6121;49.810;6.418;2023-09-19T16:04:12;22.10;97.20
12115;DHT22;6121;49.810;6.418;2023-09-19T16:06:39;21.90;97.30
12115;DHT22;6121;49.810;6.418;2023-09-19T16:09:05;21.90;97.20
12115;DHT22;6121;49.810;6.418;2023-09-19T16:11:34;22.10;97.60
12115;DHT22;6121;49.810;6.418;2023-09-19T16:14:03;22.00;97.60
12115;DHT22;6121;49.810;6.418;2023-09-19T16:16:30;21.90;97.80
12115;DHT22;6121;49.810;6.418;2023-09-19T16:18:59;21.90;97.90
12115;DHT22;6121;49.810;6.418;2023-09-19T16:21:27;21.70;97.90
12115;DHT22;6121;49.810;6.418;2023-09-19T16:23:54;21.60;98.10
12115;DHT22;6121;49.810;6.418;2023-09-19T16:26:21;21.50;98.60
12115;DHT22;6121;49.810;6.418;2023-09-19T16:28:49;21.50;98.50
12115;DHT22;6121;49.810;6.418;2023-09-19T16:31:15;21.50;98.50
12115;DHT22;6121;49.810;6.418;2023-09-19T16:33:43;21.70;98.60
12115;DHT22;6121;49.810;6.418;2023-09-19T16:36:11;21.90;98.70
12115;DHT22;6121;49.810;6.418;2023-09-19T16:38:38;21.70;98.70
12115;DHT22;6121;49.810;6.418;2023-09-19T16:41:04;21.50;99.00
12115;DHT22;6121;49.810;6.418;2023-09-19T16:43:30;21.80;99.20
12115;DHT22;6121;49.810;6.418;2023-09-19T16:48:26;21.70;99.70
12115;DHT22;6121;49.810;6.418;2023-09-19T16:50:53;21.30;99.70
12115;DHT22;6121;49.810;6.418;2023-09-19T16:53:20;21.20;99.90
12115;DHT22;6121;49.810;6.418;2023-09-19T16:55:47;21.20;99.90
12115;DHT22;6121;49.810;6.418;2023-09-19T16:58:14;21.20;99.90
12115;DHT22;6121;49.810;6.418;2023-09-19T17:00:40;21.40;99.90